METAR AND TAF INFORMATION
METAR FOR GCXO
ADDS - METARS form results

(0847 UTC 22 October 2019)
Data provider http://aviationweather.gov/metar/data/
 
METAR text: GCXO 220830Z 31008KT 280V340 9999 FEW012 BKN020 15/12 Q1021 NOSIG
Conditions at: GCXO (TENERIFE/LOS ROD, ES) observed 0830 UTC 22 October 2019
Temperature: 15.0°C (59°F)
Dewpoint: 12.0°C (54°F) [RH = 82%]
Pressure (altimeter): 30.15 inches Hg (1021.0 mb)
Winds: from the NW (310 degrees) at 9 MPH (8 knots; 4.1 m/s)
Visibility: 6 or more miles (10+ km)
Ceiling: 2000 feet AGL
Clouds: few clouds at 1200 feet AGL
broken clouds at 2000 feet AGL
Weather: no significant weather observed at this time

METAR text: GCXO 220800Z 30009KT 270V340 9999 -DZ FEW012 BKN025 14/12 Q1021 NOSIG
Conditions at: GCXO (TENERIFE/LOS ROD, ES) observed 0800 UTC 22 October 2019
Temperature: 14.0°C (57°F)
Dewpoint: 12.0°C (54°F) [RH = 88%]
Pressure (altimeter): 30.15 inches Hg (1021.0 mb)
Winds: from the WNW (300 degrees) at 10 MPH (9 knots; 4.6 m/s)
Visibility: 6 or more miles (10+ km)
Ceiling: 2500 feet AGL
Clouds: few clouds at 1200 feet AGL
broken clouds at 2500 feet AGL
Weather: -DZ  (light drizzle)

Forecast for: GCXO (TENERIFE/LOS ROD, ES)
Text: TAF GCXO 220800Z 2209/2309 32012KT 9999 SCT025 TX20/2214Z TN15/2305Z
Forecast period: 0900 UTC 22 October 2019 to 0900 UTC 23 October 2019
Forecast type: FROM: standard forecast or significant change
Winds: from the NW (320 degrees) at 14 MPH (12 knots; 6.2 m/s)
Visibility: 6 or more miles 10+ km)
Ceiling: at least 12,000 feet AGL
Clouds: scattered clouds at 2500 feet AGL
Weather: no significant weather forecast for this period
Text: PROB30
Forecast period: 0900 to 1100 UTC 22 October 2019
Forecast type: TEMPORARY: The following changes expected for less than half the time period
Visibility: missing
Ceiling: 1400 feet AGL
Clouds: broken clouds at 1400 feet AGL
Weather: RA  (moderate rain)
Text: TEMPO 2209/2211 RA BKN014
Forecast period: 0000 to 0900 UTC 23 October 2019
Forecast type: TEMPORARY: The following changes expected for less than half the time period
Visibility: missing
Ceiling: 1400 feet AGL
Clouds: broken clouds at 1400 feet AGL
Weather: RA  (moderate rain)

 AIRPORT MAP

 RUNWAY INFORMATION
Runway 12 Runway length 11155 ft Runway width 148 ft
Runway elevation 2060 ft Runway displaced threshold 0 ft Runway heading 111
Runway 30 Runway length 11155 ft Runway width 148 ft
Runway elevation 2002 ft Runway displaced threshold 0 ft Runway heading 291

 AIRPORT FREQUENCIES
Type APP Name APP Frequency 119.7 MHZ
Type ATIS Name ATIS Frequency 118.575 MHZ
Type GND Name GND Frequency 121.7 MHZ
Type TWR Name TWR Frequency 118.7 MHZ

 AIRPORT NEAR NAVIGATION AIDS
Type VOR-DME Name Tenerife Norte Frequency 117700 KHZ
Type NDB Name Tenerife Norte Frequency 410 KHZ